createdAt,value
2022-12-08T00:00:20.017Z,10.47
2022-12-08T00:02:49.339Z,8.60
2022-12-08T00:05:35.768Z,8.83
2022-12-08T00:08:22.124Z,8.67
2022-12-08T00:10:51.357Z,8.37
2022-12-08T00:13:20.351Z,10.03
2022-12-08T00:15:50.850Z,10.60
2022-12-08T00:18:20.050Z,12.20
2022-12-08T00:20:55.827Z,9.87
2022-12-08T00:23:25.064Z,9.57
2022-12-08T00:25:54.176Z,8.80
2022-12-08T00:28:23.349Z,8.43
2022-12-08T00:30:53.869Z,8.00
2022-12-08T00:33:23.224Z,7.50
2022-12-08T00:35:52.157Z,7.10
2022-12-08T00:38:22.121Z,8.20
2022-12-08T00:40:51.096Z,7.47
2022-12-08T00:43:20.229Z,7.90
2022-12-08T00:45:49.305Z,7.30
2022-12-08T00:48:19.944Z,7.40
2022-12-08T00:50:48.961Z,9.03
2022-12-08T00:53:18.145Z,7.97
2022-12-08T00:55:47.076Z,9.27
2022-12-08T00:58:16.298Z,8.77
2022-12-08T01:00:45.911Z,8.97
2022-12-08T01:03:15.285Z,8.30
2022-12-08T01:05:45.731Z,8.37
2022-12-08T01:08:14.834Z,8.07
2022-12-08T01:10:44.774Z,9.13
2022-12-08T01:13:13.957Z,9.00
2022-12-08T01:15:42.914Z,8.37
2022-12-08T01:18:11.938Z,8.63
2022-12-08T01:20:40.988Z,8.57
2022-12-08T01:23:11.474Z,7.90
2022-12-08T01:25:40.604Z,9.23
2022-12-08T01:28:09.686Z,8.53
2022-12-08T01:30:40.644Z,8.47
2022-12-08T01:33:09.736Z,8.37
2022-12-08T01:35:40.656Z,7.87
2022-12-08T01:38:11.242Z,7.20
2022-12-08T01:40:40.306Z,7.30
2022-12-08T01:43:14.546Z,7.83
2022-12-08T01:45:43.668Z,7.10
2022-12-08T01:48:19.720Z,7.30
2022-12-08T01:50:49.804Z,7.30
2022-12-08T01:53:24.478Z,7.97
2022-12-08T01:55:58.021Z,7.67
2022-12-08T01:58:31.268Z,7.90
2022-12-08T02:01:00.504Z,7.30
2022-12-08T02:03:33.336Z,7.57
2022-12-08T02:06:03.098Z,7.37
2022-12-08T02:08:34.015Z,7.43
2022-12-08T02:11:03.194Z,7.33
2022-12-08T02:13:32.907Z,7.40
2022-12-08T02:16:11.549Z,7.10
2022-12-08T02:19:28.559Z,7.73
2022-12-08T02:21:52.733Z,7.60
2022-12-08T02:24:31.973Z,7.47
2022-12-08T02:27:31.431Z,7.27
2022-12-08T02:30:18.855Z,6.83
2022-12-08T02:33:21.987Z,7.43
2022-12-08T02:35:59.470Z,8.37
2022-12-08T02:38:38.462Z,7.50
2022-12-08T02:41:27.224Z,7.30
2022-12-08T02:44:02.951Z,7.43
2022-12-08T02:46:37.425Z,13.10
2022-12-08T02:49:07.722Z,9.83
2022-12-08T02:51:38.344Z,9.00
2022-12-08T02:54:07.693Z,8.47
2022-12-08T02:56:52.107Z,8.73
2022-12-08T02:59:34.197Z,9.47
2022-12-08T03:02:19.298Z,10.03
2022-12-08T03:04:59.122Z,9.13
2022-12-08T03:07:34.726Z,7.97
2022-12-08T03:10:09.595Z,9.20
2022-12-08T03:12:45.206Z,10.23
2022-12-08T03:15:18.465Z,10.53
2022-12-08T03:17:52.430Z,10.40
2022-12-08T03:20:24.875Z,10.87
2022-12-08T03:22:58.281Z,11.73
2022-12-08T03:25:29.924Z,11.50
2022-12-08T03:27:59.396Z,10.23
2022-12-08T03:30:30.130Z,8.80
2022-12-08T03:33:04.925Z,7.77
2022-12-08T03:35:36.749Z,8.30
2022-12-08T03:38:09.456Z,7.67
2022-12-08T03:40:39.538Z,8.07
2022-12-08T03:43:09.006Z,7.67
2022-12-08T03:45:38.206Z,7.47
2022-12-08T03:48:07.789Z,8.10
2022-12-08T03:50:36.728Z,7.87
2022-12-08T03:53:07.398Z,7.50
2022-12-08T03:55:36.559Z,7.77
2022-12-08T03:58:05.519Z,8.87
2022-12-08T04:00:34.716Z,10.70
2022-12-08T04:03:04.882Z,10.13
2022-12-08T04:05:34.103Z,9.87
2022-12-08T04:08:03.262Z,9.73
2022-12-08T04:10:33.800Z,14.70
2022-12-08T04:13:02.938Z,17.40
2022-12-08T04:15:31.818Z,16.37
2022-12-08T04:18:00.891Z,13.43
2022-12-08T04:20:29.953Z,8.10
2022-12-08T04:22:59.096Z,7.63
2022-12-08T04:25:28.321Z,7.30
2022-12-08T04:27:58.916Z,6.97
2022-12-08T04:30:28.414Z,6.83
2022-12-08T04:32:57.397Z,7.17
2022-12-08T04:35:26.555Z,7.10
2022-12-08T04:37:55.533Z,6.30
2022-12-08T04:40:24.626Z,7.00
2022-12-08T04:42:53.709Z,7.17
2022-12-08T04:45:24.262Z,7.37
2022-12-08T04:47:53.426Z,6.40
2022-12-08T04:50:22.490Z,7.00
2022-12-08T04:52:51.589Z,7.53
2022-12-08T04:55:20.920Z,6.60
2022-12-08T04:57:50.305Z,6.70
2022-12-08T05:00:20.231Z,7.00
2022-12-08T05:02:50.848Z,7.00
2022-12-08T05:05:20.103Z,7.93
2022-12-08T05:07:49.076Z,7.70
2022-12-08T05:10:18.407Z,7.23
2022-12-08T05:12:47.392Z,6.67
2022-12-08T05:15:16.726Z,7.13
2022-12-08T05:17:46.856Z,7.20
2022-12-08T05:20:17.584Z,7.63
2022-12-08T05:22:46.825Z,9.07
2022-12-08T05:25:15.954Z,10.70
2022-12-08T05:27:45.189Z,8.77
2022-12-08T05:30:14.481Z,7.97
2022-12-08T05:32:43.641Z,7.33
2022-12-08T05:35:13.272Z,8.03
2022-12-08T05:37:43.706Z,6.83
2022-12-08T05:40:13.113Z,6.10
2022-12-08T05:42:42.273Z,5.93
2022-12-08T05:45:12.336Z,7.07
2022-12-08T05:47:41.500Z,6.53
2022-12-08T05:50:10.830Z,6.03
2022-12-08T05:52:39.931Z,6.40
2022-12-08T05:55:11.636Z,6.17
2022-12-08T05:57:40.714Z,6.60
2022-12-08T06:00:10.871Z,7.23
2022-12-08T06:02:43.235Z,6.33
2022-12-08T06:05:12.477Z,6.20
2022-12-08T06:07:41.772Z,7.50
2022-12-08T06:10:14.315Z,8.00
2022-12-08T06:12:43.353Z,10.73
2022-12-08T06:15:13.023Z,7.37
2022-12-08T06:17:42.146Z,6.80
2022-12-08T06:20:11.852Z,8.10
2022-12-08T06:22:40.891Z,6.23
2022-12-08T06:25:12.129Z,7.57
2022-12-08T06:27:41.140Z,7.83
2022-12-08T06:30:10.854Z,7.63
2022-12-08T06:32:40.007Z,7.70
2022-12-08T06:35:10.055Z,6.97
2022-12-08T06:37:39.510Z,6.50
2022-12-08T06:40:12.157Z,6.60
2022-12-08T06:42:47.356Z,6.97
2022-12-08T06:45:18.480Z,6.90
2022-12-08T06:47:47.781Z,13.27
2022-12-08T06:50:17.038Z,12.33
2022-12-08T06:52:56.978Z,12.70
2022-12-08T06:58:23.021Z,8.10
2022-12-08T07:00:52.108Z,7.10
2022-12-08T07:03:21.245Z,7.50
2022-12-08T07:05:50.378Z,7.23
2022-12-08T07:08:19.995Z,7.10
2022-12-08T07:10:50.537Z,7.60
2022-12-08T07:13:19.635Z,8.17
2022-12-08T07:15:48.876Z,7.13
2022-12-08T07:18:17.954Z,7.33
2022-12-08T07:20:47.068Z,7.33
2022-12-08T07:23:16.239Z,7.07
2022-12-08T07:25:45.290Z,7.57
2022-12-08T07:28:15.639Z,6.53
2022-12-08T07:30:44.758Z,7.03
2022-12-08T07:33:13.978Z,6.20
2022-12-08T07:35:48.983Z,6.47
2022-12-08T07:38:18.540Z,6.67
2022-12-08T07:40:47.906Z,6.67
2022-12-08T07:43:20.681Z,6.43
2022-12-08T07:45:50.387Z,6.47
2022-12-08T07:48:19.941Z,6.60
2022-12-08T07:50:49.487Z,6.40
2022-12-08T07:53:18.853Z,6.90
2022-12-08T07:55:48.050Z,6.00
2022-12-08T07:58:17.131Z,6.27
2022-12-08T08:00:47.673Z,6.10
2022-12-08T08:03:18.044Z,6.03
2022-12-08T08:05:49.442Z,6.90
2022-12-08T08:08:18.791Z,6.90
2022-12-08T08:10:48.609Z,9.10
2022-12-08T08:13:17.715Z,6.50
2022-12-08T08:15:48.479Z,6.43
2022-12-08T08:18:17.704Z,10.93
2022-12-08T08:20:46.669Z,7.77
2022-12-08T08:23:15.782Z,7.50
2022-12-08T08:25:44.832Z,7.67
2022-12-08T08:28:15.394Z,6.77
2022-12-08T08:30:44.646Z,7.33
2022-12-08T08:33:15.527Z,7.20
2022-12-08T08:35:44.753Z,7.07
2022-12-08T08:38:13.980Z,8.47
2022-12-08T08:40:43.179Z,8.33
2022-12-08T08:43:34.290Z,6.10
2022-12-08T08:46:07.019Z,5.97
2022-12-08T08:48:37.757Z,6.23
2022-12-08T08:51:11.498Z,6.83
2022-12-08T08:53:41.105Z,6.70
2022-12-08T08:56:12.465Z,6.20
2022-12-08T08:58:41.703Z,8.33
2022-12-08T09:01:10.733Z,11.20
2022-12-08T09:03:41.536Z,11.13
2022-12-08T09:06:10.811Z,19.90
2022-12-08T09:08:39.957Z,18.07
2022-12-08T09:11:09.641Z,28.13
2022-12-08T09:13:39.211Z,14.40
2022-12-08T09:16:11.041Z,7.33
2022-12-08T09:18:42.452Z,7.00
2022-12-08T09:21:13.327Z,7.50
2022-12-08T09:23:42.572Z,7.10
2022-12-08T09:26:12.120Z,7.97
2022-12-08T09:28:46.487Z,8.63
2022-12-08T09:31:15.944Z,8.80
2022-12-08T09:33:46.720Z,7.23
2022-12-08T09:36:16.902Z,9.43
2022-12-08T09:38:46.813Z,7.07
2022-12-08T09:41:19.454Z,6.73
2022-12-08T09:44:00.266Z,6.43
2022-12-08T09:46:32.179Z,8.07
2022-12-08T09:49:04.859Z,5.33
2022-12-08T09:51:39.184Z,6.20
2022-12-08T09:54:13.183Z,5.50
2022-12-08T09:56:42.519Z,5.10
2022-12-08T09:59:24.197Z,5.17
2022-12-08T10:01:54.257Z,5.57
2022-12-08T10:04:27.876Z,3.73
2022-12-08T10:07:08.241Z,3.57
2022-12-08T10:09:42.425Z,3.50
2022-12-08T10:12:20.246Z,3.23
2022-12-08T10:14:54.762Z,3.83
2022-12-08T10:17:27.208Z,7.93
2022-12-08T10:20:03.571Z,3.93
2022-12-08T10:22:39.868Z,3.67
2022-12-08T10:25:18.290Z,4.33
2022-12-08T10:27:50.169Z,3.80
2022-12-08T10:30:21.910Z,3.97
2022-12-08T10:32:54.466Z,4.03
2022-12-08T10:35:25.626Z,3.87
2022-12-08T10:37:59.202Z,3.10
2022-12-08T10:40:31.160Z,3.37
2022-12-08T10:43:01.264Z,4.20
2022-12-08T10:45:32.880Z,3.40
2022-12-08T10:48:04.426Z,4.03
2022-12-08T10:50:37.108Z,3.90
2022-12-08T10:53:14.965Z,3.60
2022-12-08T10:55:45.893Z,3.40
2022-12-08T10:58:29.473Z,3.57
2022-12-08T11:01:02.266Z,3.80
2022-12-08T11:03:34.332Z,3.50
2022-12-08T11:06:16.402Z,3.93
2022-12-08T11:08:52.058Z,3.70
2022-12-08T11:11:29.028Z,4.77
2022-12-08T11:13:58.899Z,4.33
2022-12-08T11:16:29.265Z,5.00
2022-12-08T11:18:59.634Z,4.97
2022-12-08T11:21:39.130Z,7.70
2022-12-08T11:24:26.421Z,5.10
2022-12-08T11:27:02.531Z,5.93
2022-12-08T11:29:34.302Z,6.13
2022-12-08T11:32:06.821Z,6.00
2022-12-08T11:34:40.937Z,6.27
2022-12-08T11:37:20.975Z,6.70
2022-12-08T11:39:56.862Z,6.53
2022-12-08T11:42:34.528Z,6.67
2022-12-08T11:45:09.043Z,6.37
2022-12-08T11:47:44.634Z,6.87
2022-12-08T11:50:22.388Z,7.57
2022-12-08T11:52:54.624Z,6.00
2022-12-08T11:55:40.690Z,5.10
2022-12-08T11:58:19.530Z,5.87
2022-12-08T12:00:48.894Z,5.70
2022-12-08T12:03:29.904Z,5.43
2022-12-08T12:06:54.146Z,5.60
2022-12-08T12:09:33.355Z,5.87
2022-12-08T12:12:16.083Z,5.40
2022-12-08T12:15:08.222Z,4.90
2022-12-08T12:17:45.208Z,5.83
2022-12-08T12:20:20.262Z,5.40
2022-12-08T12:22:58.341Z,5.50
2022-12-08T12:25:29.674Z,5.30
2022-12-08T12:28:02.289Z,5.97
2022-12-08T12:30:53.694Z,5.20
2022-12-08T12:33:24.341Z,4.77
2022-12-08T12:35:57.096Z,5.10
2022-12-08T12:38:49.258Z,5.40
2022-12-08T12:41:25.652Z,6.00
2022-12-08T12:44:24.433Z,6.63
2022-12-08T12:46:59.130Z,6.00
2022-12-08T12:49:53.613Z,5.20
2022-12-08T12:52:55.379Z,4.43
2022-12-08T12:55:28.527Z,5.43
2022-12-08T12:58:00.575Z,6.20
2022-12-08T13:00:30.058Z,6.37
2022-12-08T13:03:00.243Z,7.20
2022-12-08T13:05:32.225Z,7.50
2022-12-08T13:08:03.803Z,7.93
2022-12-08T13:10:35.298Z,8.77
2022-12-08T13:13:18.788Z,12.63
2022-12-08T13:15:53.113Z,8.63
2022-12-08T13:18:25.573Z,9.57
2022-12-08T13:20:58.912Z,11.63
2022-12-08T13:23:31.685Z,11.20
2022-12-08T13:26:17.570Z,10.40
2022-12-08T13:29:25.183Z,10.43
2022-12-08T13:31:55.717Z,12.27
2022-12-08T13:34:31.953Z,10.60
2022-12-08T13:37:26.793Z,10.37
2022-12-08T13:40:00.498Z,11.80
2022-12-08T13:42:35.157Z,11.93
2022-12-08T13:45:33.583Z,10.37
2022-12-08T13:48:30.133Z,10.30
2022-12-08T13:57:07.128Z,12.60
2022-12-08T13:59:38.007Z,13.80
2022-12-08T14:02:19.934Z,13.70
2022-12-08T14:07:40.519Z,15.97
2022-12-08T14:10:11.451Z,14.40
2022-12-08T14:12:42.091Z,15.50
2022-12-08T14:15:16.877Z,16.27
2022-12-08T14:17:53.817Z,14.63
2022-12-08T14:20:27.739Z,14.60
2022-12-08T14:22:57.267Z,17.17
2022-12-08T14:25:27.089Z,21.20
2022-12-08T14:28:01.263Z,25.00
2022-12-08T14:30:33.521Z,25.23
2022-12-08T14:33:05.625Z,20.43
2022-12-08T14:35:35.982Z,23.03
2022-12-08T14:38:07.013Z,21.97
2022-12-08T14:40:37.757Z,32.23
2022-12-08T14:43:15.089Z,24.07
2022-12-08T14:45:53.619Z,17.63
2022-12-08T14:48:27.138Z,17.17
2022-12-08T14:51:02.021Z,16.60
2022-12-08T14:53:39.878Z,15.60
2022-12-08T14:56:15.958Z,16.27
2022-12-08T14:58:45.237Z,17.47
2022-12-08T15:01:17.199Z,20.83
2022-12-08T15:03:51.200Z,19.80
2022-12-08T15:06:23.611Z,21.27
2022-12-08T15:08:56.040Z,19.80
2022-12-08T15:11:42.894Z,20.10
2022-12-08T15:14:29.120Z,19.77
2022-12-08T15:16:58.190Z,20.50
2022-12-08T15:19:31.187Z,19.50
2022-12-08T15:22:09.249Z,21.93
2022-12-08T15:24:38.360Z,19.80
2022-12-08T15:27:08.351Z,24.00
2022-12-08T15:29:37.474Z,25.87
2022-12-08T15:32:11.257Z,23.40
2022-12-08T15:34:41.826Z,26.40
2022-12-08T15:37:20.613Z,34.53
2022-12-08T15:39:49.833Z,25.30
2022-12-08T15:42:18.864Z,22.67
2022-12-08T15:44:48.167Z,22.27
2022-12-08T15:47:19.383Z,23.23
2022-12-08T15:49:51.345Z,24.67
2022-12-08T15:52:22.170Z,23.73
2022-12-08T15:54:51.336Z,25.77
2022-12-08T15:58:04.026Z,24.33
2022-12-08T16:00:51.867Z,24.67
2022-12-08T16:09:19.818Z,26.07
2022-12-08T16:12:08.977Z,26.73
2022-12-08T16:17:29.877Z,23.97
2022-12-08T16:20:00.137Z,23.43
2022-12-08T16:25:23.688Z,22.83
2022-12-08T16:28:05.262Z,24.60
2022-12-08T16:30:44.029Z,23.97
2022-12-08T16:33:16.203Z,24.80
2022-12-08T16:35:45.837Z,25.93
2022-12-08T16:38:17.797Z,26.10
2022-12-08T16:41:05.116Z,26.20
2022-12-08T16:43:35.776Z,27.40
2022-12-08T16:46:05.185Z,26.43
2022-12-08T16:48:34.340Z,25.87
2022-12-08T16:51:05.160Z,26.83
2022-12-08T16:53:38.561Z,28.63
2022-12-08T16:56:13.243Z,30.30
2022-12-08T16:58:45.889Z,31.03
2022-12-08T17:01:20.977Z,30.70
2022-12-08T17:04:14.715Z,31.60
2022-12-08T17:06:44.395Z,37.70
2022-12-08T17:09:21.847Z,33.97
2022-12-08T17:11:53.737Z,40.10
2022-12-08T17:14:28.241Z,85.03
2022-12-08T17:16:59.195Z,109.47
2022-12-08T17:19:29.770Z,87.87
2022-12-08T17:22:11.048Z,64.00
2022-12-08T17:24:46.093Z,47.07
2022-12-08T17:27:17.330Z,39.80
2022-12-08T17:29:50.906Z,40.60
2022-12-08T17:32:20.745Z,42.10
2022-12-08T17:34:52.329Z,34.30
2022-12-08T17:37:24.325Z,31.27
2022-12-08T17:39:56.616Z,36.57
2022-12-08T17:42:27.750Z,34.30
2022-12-08T17:44:59.696Z,34.77
2022-12-08T17:47:29.448Z,35.00
2022-12-08T17:49:58.483Z,33.37
2022-12-08T17:52:27.726Z,31.83
2022-12-08T17:54:58.301Z,35.77
2022-12-08T17:57:27.356Z,35.23
2022-12-08T17:59:56.608Z,32.30
2022-12-08T18:02:25.720Z,33.40
2022-12-08T18:04:54.944Z,33.70
2022-12-08T18:07:23.994Z,33.80
2022-12-08T18:09:53.107Z,35.60
2022-12-08T18:12:24.167Z,36.33
2022-12-08T18:14:53.319Z,39.17
2022-12-08T18:17:22.292Z,54.47
2022-12-08T18:19:51.470Z,72.47
2022-12-08T18:22:20.744Z,50.03
2022-12-08T18:24:49.761Z,49.47
2022-12-08T18:27:19.856Z,80.30
2022-12-08T18:29:51.294Z,73.17
2022-12-08T18:32:24.459Z,86.53
2022-12-08T18:34:56.806Z,94.23
2022-12-08T18:37:27.857Z,56.73
2022-12-08T18:39:58.943Z,50.23
2022-12-08T18:42:31.137Z,54.30
2022-12-08T18:45:06.692Z,46.47
2022-12-08T18:47:39.877Z,43.40
2022-12-08T18:50:13.364Z,39.90
2022-12-08T18:52:46.852Z,37.03
2022-12-08T18:55:24.941Z,37.40
2022-12-08T18:57:59.339Z,44.90
2022-12-08T19:00:29.828Z,38.70
2022-12-08T19:02:58.942Z,39.90
2022-12-08T19:05:28.085Z,43.13
2022-12-08T19:07:57.401Z,42.43
2022-12-08T19:10:26.509Z,45.30
2022-12-08T19:12:56.142Z,43.83
2022-12-08T19:15:25.159Z,39.53
2022-12-08T19:17:55.716Z,35.87
2022-12-08T19:20:24.829Z,36.20
2022-12-08T19:22:54.019Z,35.23
2022-12-08T19:25:23.593Z,35.40
2022-12-08T19:27:52.732Z,36.00
2022-12-08T19:30:22.421Z,34.33
2022-12-08T19:32:53.815Z,38.30
2022-12-08T19:35:26.976Z,38.47
2022-12-08T19:37:57.933Z,32.63
2022-12-08T19:40:45.648Z,29.73
2022-12-08T19:43:49.939Z,32.77
2022-12-08T19:46:22.285Z,31.53
2022-12-08T19:48:56.630Z,68.90
2022-12-08T19:51:29.244Z,68.17
2022-12-08T19:53:59.533Z,60.57
2022-12-08T19:56:29.647Z,77.10
2022-12-08T19:58:58.757Z,79.13
2022-12-08T20:01:28.055Z,64.23
2022-12-08T20:04:13.317Z,45.17
2022-12-08T20:06:47.088Z,36.70
2022-12-08T20:09:16.545Z,31.87
2022-12-08T20:11:45.614Z,44.67
2022-12-08T20:14:14.894Z,52.63
2022-12-08T20:16:43.922Z,37.57
2022-12-08T20:19:12.990Z,34.23
2022-12-08T20:21:43.895Z,31.73
2022-12-08T20:24:13.083Z,27.63
2022-12-08T20:26:42.093Z,31.93
2022-12-08T20:29:12.001Z,75.13
2022-12-08T20:31:41.123Z,43.17
2022-12-08T20:34:16.541Z,33.23
2022-12-08T20:36:47.371Z,25.57
2022-12-08T20:39:19.509Z,25.07
2022-12-08T20:41:49.319Z,42.17
2022-12-08T20:44:18.316Z,41.30
2022-12-08T20:46:49.580Z,41.13
2022-12-08T20:49:18.990Z,34.70
2022-12-08T20:51:49.988Z,31.20
2022-12-08T20:54:19.285Z,25.43
2022-12-08T20:56:48.842Z,25.00
2022-12-08T20:59:18.930Z,21.83
2022-12-08T21:01:48.308Z,20.80
2022-12-08T21:04:17.623Z,23.50
2022-12-08T21:06:46.875Z,24.20
2022-12-08T21:09:17.676Z,23.43
2022-12-08T21:11:47.241Z,25.77
2022-12-08T21:14:16.494Z,22.00
2022-12-08T21:16:45.611Z,19.90
2022-12-08T21:19:14.930Z,21.33
2022-12-08T21:21:46.131Z,19.47
2022-12-08T21:24:17.228Z,19.13
2022-12-08T21:26:48.106Z,21.53
2022-12-08T21:29:17.419Z,28.40
2022-12-08T21:31:46.580Z,19.90
2022-12-08T21:34:15.900Z,22.13
2022-12-08T21:36:45.163Z,22.77
2022-12-08T21:39:14.349Z,19.17
2022-12-08T21:42:02.245Z,19.80
2022-12-08T21:44:31.529Z,34.07
2022-12-08T21:47:00.902Z,31.27
2022-12-08T21:49:30.195Z,39.47
2022-12-08T21:51:59.560Z,38.60
2022-12-08T21:54:28.672Z,36.50
2022-12-08T21:56:59.376Z,31.87
2022-12-08T21:59:28.495Z,29.63
2022-12-08T22:01:57.644Z,22.70
2022-12-08T22:04:27.062Z,20.43
2022-12-08T22:06:56.125Z,22.97
2022-12-08T22:09:25.278Z,23.63
2022-12-08T22:11:54.629Z,23.27
2022-12-08T22:14:25.331Z,19.87
2022-12-08T22:16:54.485Z,22.53
2022-12-08T22:19:24.792Z,19.00
2022-12-08T22:21:55.108Z,15.77
2022-12-08T22:24:24.548Z,14.90
2022-12-08T22:26:54.071Z,13.63
2022-12-08T22:29:24.648Z,14.27
2022-12-08T22:31:53.768Z,13.93
2022-12-08T22:34:23.396Z,13.17
2022-12-08T22:36:52.349Z,12.70
2022-12-08T22:39:21.271Z,23.30
2022-12-08T22:41:50.502Z,24.13
2022-12-08T22:44:19.501Z,16.97
2022-12-08T22:46:50.183Z,12.77
2022-12-08T22:49:19.275Z,12.17
2022-12-08T22:51:48.419Z,12.13
2022-12-08T22:54:17.536Z,11.03
2022-12-08T22:56:46.575Z,11.30
2022-12-08T22:59:15.636Z,11.07
2022-12-08T23:01:45.365Z,10.50
2022-12-08T23:04:17.974Z,10.33
2022-12-08T23:06:47.755Z,10.87
2022-12-08T23:09:16.800Z,10.73
2022-12-08T23:11:46.287Z,11.30
2022-12-08T23:14:16.681Z,11.30
2022-12-08T23:16:45.983Z,13.97
2022-12-08T23:19:16.589Z,14.03
2022-12-08T23:21:45.773Z,13.30
2022-12-08T23:24:14.807Z,39.20
2022-12-08T23:26:44.383Z,55.07
2022-12-08T23:29:13.476Z,32.13
2022-12-08T23:31:42.714Z,28.80
2022-12-08T23:34:12.130Z,28.83
2022-12-08T23:36:42.876Z,25.57
2022-12-08T23:39:13.308Z,26.27
2022-12-08T23:41:42.376Z,19.10
2022-12-08T23:44:12.407Z,17.77
2022-12-08T23:46:41.691Z,18.93
2022-12-08T23:49:11.020Z,16.77
2022-12-08T23:51:42.389Z,16.50
2022-12-08T23:54:11.625Z,16.13
2022-12-08T23:56:40.775Z,15.77
2022-12-08T23:59:10.460Z,16.30
